Argo — SMOH — position and weather

sailwx.info

Track history (hours):
 
Tides and Currents Weather Stations Pressure Air Temp Water Temp Dewpoint Dewpoint Depression Visibility Wind Speed Wind Dir Waves Ship Positions

Argo

Last reported at 2015-Jun-16 21:23 UTC. Time now 2015-Jul-03 02:36 UTC.
Position N 56°09' E 015°35'.
Warning: this ship's position is 16 days out of date.

Length 26 m; draft 2 m.

Type: Military. MMSI: 265591600.

Date/timePositionNaut miles runAvg speedWind from/ knotsBaromVisibWave heightAir tempDewpointWater temp
2015-Jun-16 21:23N 56°09' E 015°35'0 0.0
2015-Jun-16 20:30N 56°09' E 015°35'6616.7
2015-Jun-16 16:34N 57°04' E 016°41'2221.8
2015-Jun-16 15:34N 57°25' E 016°50'  
2015-Jun-10 08:25N 58°37' E 016°58'63 3.1
2015-Jun-09 12:15N 57°34' E 016°54'1522.1
2015-Jun-09 11:33N 57°20' E 016°48'2221.8
2015-Jun-09 10:33N 56°58' E 016°38'4320.2
2015-Jun-09 08:25N 56°18' E 016°09'1910.3
2015-Jun-09 06:33N 56°09' E 015°38'  
Track history (hours):
 
Tides and Currents Weather Stations Pressure Air Temp Water Temp Dewpoint Dewpoint Depression Visibility Wind Speed Wind Dir Waves Ship Positions

Argo

Last reported at 2015-Jun-16 21:23 UTC. Time now 2015-Jul-03 02:36 UTC.
Position N 56°09' E 015°35'.
Warning: this ship's position is 16 days out of date.

Length 26 m; draft 2 m.

Type: Military. MMSI: 265591600.

Date/timePositionNaut miles runAvg speedWind from/ knotsBaromVisibWave heightAir tempDewpointWater temp
2015-Jun-16 21:23N 56°09' E 015°35'0 0.0
2015-Jun-16 20:30N 56°09' E 015°35'6616.7
2015-Jun-16 16:34N 57°04' E 016°41'2221.8
2015-Jun-16 15:34N 57°25' E 016°50'  
2015-Jun-10 08:25N 58°37' E 016°58'63 3.1
2015-Jun-09 12:15N 57°34' E 016°54'1522.1
2015-Jun-09 11:33N 57°20' E 016°48'2221.8
2015-Jun-09 10:33N 56°58' E 016°38'4320.2
2015-Jun-09 08:25N 56°18' E 016°09'1910.3
2015-Jun-09 06:33N 56°09' E 015°38'  

Dump ship's entire track history